X  Sluiten METAR luchtvaart weer gegevens      EIDW Dublin Airport
Temperatuur
57°F Temperatuur
57°F Dauwpunt
100% Vochtigheid



Wind
6 MPH
10 KM/U
3 M/S
5 KTS



20°
NNO
Huidig weer

Helder Helder
Luchtdruk 1008.92 (hPa) - 29.79 (inHg)
Zicht 6.2 (mijl) - 10 (km)
Vliegveld
Vliegveld code EIDW

Locatie : Dublin Airport
Afstand: 17 (mi)

Metar:
EIDW 140600Z 02005KT 340V060 CAVOK 14/14 Q1009 NOSIG

Tijd: 14-08-2022 07:00 IST